createdAt,value
2018-03-08T00:00:19.706Z,99579.03
2018-03-08T00:01:24.642Z,99582.45
2018-03-08T00:02:31.349Z,99581.53
2018-03-08T00:03:36.883Z,99581.15
2018-03-08T00:04:41.885Z,99574.59
2018-03-08T00:05:46.089Z,99577.09
2018-03-08T00:06:51.059Z,99582.13
2018-03-08T00:07:55.237Z,99581.63
2018-03-08T00:09:01.366Z,99580.34
2018-03-08T00:10:07.132Z,99583.35
2018-03-08T00:11:12.526Z,99583.52
2018-03-08T00:12:17.607Z,99590.56
2018-03-08T00:13:21.803Z,99589.16
2018-03-08T00:14:27.315Z,99590.05
2018-03-08T00:15:32.739Z,99585.97
2018-03-08T00:16:37.773Z,99583.63
2018-03-08T00:17:42.523Z,99590.61
2018-03-08T00:18:47.491Z,99588.95
2018-03-08T00:19:51.738Z,99594.05
2018-03-08T00:20:57.374Z,99595.17
2018-03-08T00:22:03.627Z,99592.89
2018-03-08T00:23:09.280Z,99596.34
2018-03-08T00:24:13.789Z,99598.98
2018-03-08T00:25:18.816Z,99604.53
2018-03-08T00:26:23.024Z,99602.36
2018-03-08T00:27:30.707Z,99603.39
2018-03-08T00:28:35.939Z,99608.41
2018-03-08T00:29:42.127Z,99609.69
2018-03-08T00:30:46.360Z,99607.57
2018-03-08T00:31:50.522Z,99615.02
2018-03-08T00:32:54.761Z,99612.02
2018-03-08T00:34:02.277Z,99606.95
2018-03-08T00:35:07.487Z,99610.83
2018-03-08T00:36:12.893Z,99615.34
2018-03-08T00:37:17.054Z,99610.63
2018-03-08T00:38:21.247Z,99618.48
2018-03-08T00:39:25.555Z,99613.49
2018-03-08T00:40:33.759Z,99613.97
2018-03-08T00:41:39.959Z,99618.35
2018-03-08T00:42:44.665Z,99615.30
2018-03-08T00:43:48.906Z,99622.03
2018-03-08T00:44:53.085Z,99617.63
2018-03-08T00:45:58.542Z,99620.05
2018-03-08T00:47:04.384Z,99617.77
2018-03-08T00:48:09.142Z,99620.11
2018-03-08T00:49:13.818Z,99619.56
2018-03-08T00:50:18.030Z,99625.59
2018-03-08T00:51:22.251Z,99618.31
2018-03-08T00:52:27.252Z,99624.16
2018-03-08T00:53:34.325Z,99626.18
2018-03-08T00:54:40.472Z,99625.58
2018-03-08T00:55:44.826Z,99625.63
2018-03-08T00:56:49.033Z,99619.58
2018-03-08T00:57:53.988Z,99625.08
2018-03-08T00:58:59.884Z,99625.52
2018-03-08T01:00:06.008Z,99619.13
2018-03-08T01:01:10.850Z,99626.16
2018-03-08T01:02:15.887Z,99625.99
2018-03-08T01:03:20.052Z,99629.77
2018-03-08T01:04:25.004Z,99635.25
2018-03-08T01:05:32.171Z,99636.95
2018-03-08T01:06:37.992Z,99629.90
2018-03-08T01:07:42.471Z,99638.45
2018-03-08T01:08:46.682Z,99647.22
2018-03-08T01:09:50.914Z,99641.84
2018-03-08T01:10:55.116Z,99648.14
2018-03-08T01:12:01.061Z,99644.38
2018-03-08T01:13:07.355Z,99644.42
2018-03-08T01:14:13.368Z,99645.70
2018-03-08T01:15:17.613Z,99644.82
2018-03-08T01:16:21.813Z,99653.48
2018-03-08T01:17:27.125Z,99648.64
2018-03-08T01:18:32.858Z,99653.06
2018-03-08T01:19:38.785Z,99661.94
2018-03-08T01:20:44.431Z,99657.98
2018-03-08T01:21:48.624Z,99654.38
2018-03-08T01:22:53.558Z,99658.46
2018-03-08T01:24:02.055Z,99660.84
2018-03-08T01:25:07.690Z,99662.25
2018-03-08T01:26:14.152Z,99656.75
2018-03-08T01:27:18.345Z,99666.09
2018-03-08T01:28:22.539Z,99661.73
2018-03-08T01:29:28.625Z,99668.19
2018-03-08T01:30:35.955Z,99668.58
2018-03-08T01:31:42.053Z,99667.29
2018-03-08T01:32:47.065Z,99669.17
2018-03-08T01:33:51.253Z,99670.47
2018-03-08T01:34:55.793Z,99673.70
2018-03-08T01:36:02.582Z,99675.91
2018-03-08T01:37:10.840Z,99677.05
2018-03-08T01:38:15.299Z,99676.33
2018-03-08T01:39:19.529Z,99676.42
2018-03-08T01:40:23.703Z,99672.94
2018-03-08T01:41:31.062Z,99674.67
2018-03-08T01:42:38.486Z,99672.90
2018-03-08T01:43:43.744Z,99682.95
2018-03-08T01:44:47.984Z,99674.73
2018-03-08T01:45:52.919Z,99678.22
2018-03-08T01:46:58.741Z,99678.20
2018-03-08T01:48:05.788Z,99679.95
2018-03-08T01:49:11.695Z,99677.38
2018-03-08T01:50:15.977Z,99680.95
2018-03-08T01:51:20.156Z,99683.09
2018-03-08T01:52:24.314Z,99682.55
2018-03-08T01:53:29.857Z,99684.77
2018-03-08T01:54:35.440Z,99676.70
2018-03-08T01:55:42.006Z,99682.98
2018-03-08T01:56:46.243Z,99680.78
2018-03-08T01:57:51.257Z,99682.06
2018-03-08T01:58:55.435Z,99690.05
2018-03-08T02:00:01.064Z,99679.09
2018-03-08T02:01:07.687Z,99683.30
2018-03-08T02:02:12.499Z,99679.94
2018-03-08T02:03:16.781Z,99681.31
2018-03-08T02:04:20.982Z,99681.43
2018-03-08T02:05:25.177Z,99680.98
2018-03-08T02:06:32.472Z,99684.55
2018-03-08T02:07:37.322Z,99684.30
2018-03-08T02:08:42.200Z,99681.39
2018-03-08T02:09:46.423Z,99685.17
2018-03-08T02:10:51.367Z,99690.73
2018-03-08T02:11:56.372Z,99686.45
2018-03-08T02:13:03.876Z,99687.51
2018-03-08T02:14:10.732Z,99687.92
2018-03-08T02:15:15.551Z,99687.06
2018-03-08T02:16:19.794Z,99683.97
2018-03-08T02:17:24.756Z,99686.68
2018-03-08T02:18:33.036Z,99692.53
2018-03-08T02:19:38.183Z,99692.59
2018-03-08T02:20:43.965Z,99687.74
2018-03-08T02:21:48.183Z,99690.75
2018-03-08T02:22:52.459Z,99692.02
2018-03-08T02:23:57.539Z,99688.14
2018-03-08T02:25:03.994Z,99696.14
2018-03-08T02:26:10.399Z,99696.73
2018-03-08T02:27:14.997Z,99699.32
2018-03-08T02:28:19.343Z,99696.84
2018-03-08T02:29:23.549Z,99699.38
2018-03-08T02:30:30.933Z,99694.33
2018-03-08T02:31:36.361Z,99694.11
2018-03-08T02:32:41.660Z,99700.84
2018-03-08T02:33:46.631Z,99698.30
2018-03-08T02:34:50.893Z,99697.93
2018-03-08T02:35:55.114Z,99702.59
2018-03-08T02:37:01.076Z,99700.06
2018-03-08T02:38:06.501Z,99707.38
2018-03-08T02:39:11.540Z,99703.06
2018-03-08T02:40:15.843Z,99708.17
2018-03-08T02:41:20.033Z,99706.14
2018-03-08T02:42:24.236Z,99704.47
2018-03-08T02:43:30.324Z,99707.00
2018-03-08T02:44:35.518Z,99711.22
2018-03-08T02:45:41.056Z,99714.59
2018-03-08T02:46:46.104Z,99715.45
2018-03-08T02:47:50.298Z,99712.05
2018-03-08T02:48:54.493Z,99712.92
2018-03-08T02:49:59.800Z,99711.66
2018-03-08T02:51:06.931Z,99715.02
2018-03-08T02:52:11.840Z,99713.36
2018-03-08T02:53:16.144Z,99720.06
2018-03-08T02:54:20.328Z,99719.25
2018-03-08T02:55:25.350Z,99718.33
2018-03-08T02:56:33.275Z,99726.41
2018-03-08T02:57:38.399Z,99716.72
2018-03-08T02:58:43.098Z,99718.72
2018-03-08T02:59:48.073Z,99724.63
2018-03-08T03:00:52.263Z,99723.00
2018-03-08T03:01:57.828Z,99725.90
2018-03-08T03:03:04.047Z,99723.78
2018-03-08T03:04:09.258Z,99722.93
2018-03-08T03:05:14.071Z,99727.53
2018-03-08T03:06:18.294Z,99731.34
2018-03-08T03:07:22.476Z,99731.34
2018-03-08T03:08:26.708Z,99736.86
2018-03-08T03:09:33.430Z,99736.84
2018-03-08T03:10:39.286Z,99739.02
2018-03-08T03:11:43.846Z,99737.31
2018-03-08T03:12:48.043Z,99738.17
2018-03-08T03:13:52.234Z,99739.06
2018-03-08T03:14:56.989Z,99738.23
2018-03-08T03:16:02.392Z,99735.69
2018-03-08T03:17:07.873Z,99745.84
2018-03-08T03:18:12.441Z,99741.16
2018-03-08T03:19:16.626Z,99734.72
2018-03-08T03:20:21.558Z,99741.90
2018-03-08T03:21:26.843Z,99743.22
2018-03-08T03:22:33.059Z,99738.53
2018-03-08T03:23:40.780Z,99740.64
2018-03-08T03:24:45.110Z,99746.22
2018-03-08T03:25:49.290Z,99746.16
2018-03-08T03:26:53.525Z,99741.45
2018-03-08T03:28:00.538Z,99746.56
2018-03-08T03:29:05.756Z,99740.59
2018-03-08T03:30:10.638Z,99743.96
2018-03-08T03:31:15.024Z,99743.54
2018-03-08T03:32:19.190Z,99741.90
2018-03-08T03:33:23.374Z,99740.97
2018-03-08T03:34:29.480Z,99738.06
2018-03-08T03:35:35.111Z,99741.91
2018-03-08T03:36:40.368Z,99741.91
2018-03-08T03:37:44.886Z,99741.02
2018-03-08T03:38:49.079Z,99745.74
2018-03-08T03:39:53.689Z,99745.73
2018-03-08T03:41:00.439Z,99746.17
2018-03-08T03:42:06.737Z,99749.95
2018-03-08T03:43:12.886Z,99744.41
2018-03-08T03:44:17.086Z,99746.55
2018-03-08T03:45:21.272Z,99747.80
2018-03-08T03:46:25.459Z,99744.41
2018-03-08T03:47:31.095Z,99749.87
2018-03-08T03:48:36.838Z,99753.31
2018-03-08T03:49:42.672Z,99756.30
2018-03-08T03:50:46.861Z,99756.66
2018-03-08T03:51:51.066Z,99752.41
2018-03-08T03:52:55.398Z,99757.87
2018-03-08T03:54:04.709Z,99758.36
2018-03-08T03:55:10.472Z,99757.52
2018-03-08T03:56:15.056Z,99760.03
2018-03-08T03:57:19.236Z,99760.88
2018-03-08T03:58:24.201Z,99757.86
2018-03-08T03:59:30.101Z,99762.15
2018-03-08T04:00:36.174Z,99765.89
2018-03-08T04:01:41.689Z,99761.27
2018-03-08T04:02:45.950Z,99757.80
2018-03-08T04:03:50.138Z,99759.53
2018-03-08T04:04:54.355Z,99756.16
2018-03-08T04:06:01.707Z,99764.13
2018-03-08T04:07:07.854Z,99763.81
2018-03-08T04:08:12.996Z,99761.25
2018-03-08T04:09:17.194Z,99763.35
2018-03-08T04:10:21.389Z,99770.09
2018-03-08T04:11:25.665Z,99764.21
2018-03-08T04:12:31.183Z,99768.89
2018-03-08T04:13:36.489Z,99763.33
2018-03-08T04:14:42.095Z,99765.44
2018-03-08T04:15:46.272Z,99772.21
2018-03-08T04:16:50.457Z,99770.16
2018-03-08T04:17:54.692Z,99767.18
2018-03-08T04:19:00.677Z,99769.36
2018-03-08T04:20:05.917Z,99774.49
2018-03-08T04:21:11.757Z,99769.00
2018-03-08T04:22:16.028Z,99765.55
2018-03-08T04:23:20.242Z,99768.10
2018-03-08T04:24:24.491Z,99765.55
2018-03-08T04:25:29.887Z,99771.08
2018-03-08T04:26:35.252Z,99765.56
2018-03-08T04:27:40.349Z,99767.75
2018-03-08T04:28:44.688Z,99772.42
2018-03-08T04:29:48.961Z,99766.50
2018-03-08T04:30:53.153Z,99766.09
2018-03-08T04:31:59.114Z,99769.09
2018-03-08T04:33:04.464Z,99771.62
2018-03-08T04:34:09.703Z,99772.90
2018-03-08T04:35:14.206Z,99769.08
2018-03-08T04:36:18.389Z,99770.36
2018-03-08T04:37:22.619Z,99766.63
2018-03-08T04:38:28.227Z,99774.64
2018-03-08T04:39:33.565Z,99770.84
2018-03-08T04:40:38.643Z,99770.84
2018-03-08T04:41:44.641Z,99777.59
2018-03-08T04:42:48.910Z,99780.59
2018-03-08T04:43:53.088Z,99776.34
2018-03-08T04:44:58.511Z,99774.59
2018-03-08T04:46:04.838Z,99780.63
2018-03-08T04:47:10.172Z,99781.02
2018-03-08T04:48:14.696Z,99775.09
2018-03-08T04:49:18.897Z,99781.11
2018-03-08T04:50:23.075Z,99781.13
2018-03-08T04:51:29.065Z,99776.05
2018-03-08T04:52:35.235Z,99784.95
2018-03-08T04:53:41.700Z,99781.95
2018-03-08T04:54:47.070Z,99785.38
2018-03-08T04:55:51.264Z,99784.11
2018-03-08T04:56:55.484Z,99786.57
2018-03-08T04:58:04.924Z,99783.67
2018-03-08T04:59:11.022Z,99783.23
2018-03-08T05:00:15.592Z,99788.31
2018-03-08T05:01:19.781Z,99792.14
2018-03-08T05:02:24.803Z,99793.90
2018-03-08T05:03:31.188Z,99801.55
2018-03-08T05:04:37.014Z,99800.72
2018-03-08T05:05:42.113Z,99800.36
2018-03-08T05:06:46.287Z,99796.04
2018-03-08T05:07:50.510Z,99790.14
2018-03-08T05:08:54.695Z,99791.42
2018-03-08T05:10:00.276Z,99785.90
2018-03-08T05:11:05.646Z,99788.50
2018-03-08T05:12:11.448Z,99790.25
2018-03-08T05:13:16.544Z,99792.72
2018-03-08T05:14:21.501Z,99786.84
2018-03-08T05:15:28.325Z,99788.96
2018-03-08T05:16:35.081Z,99787.33
2018-03-08T05:17:40.970Z,99782.27
2018-03-08T05:18:45.360Z,99779.28
2018-03-08T05:19:49.544Z,99788.99
2018-03-08T05:20:53.753Z,99794.47
2018-03-08T05:22:00.763Z,99801.69
2018-03-08T05:23:06.854Z,99795.80
2018-03-08T05:24:11.735Z,99797.52
2018-03-08T05:25:15.937Z,99799.12
2018-03-08T05:26:20.134Z,99794.08
2018-03-08T05:27:24.741Z,99793.58
2018-03-08T05:28:31.744Z,99796.58
2018-03-08T05:29:37.606Z,99800.39
2018-03-08T05:30:42.812Z,99800.41
2018-03-08T05:31:47.038Z,99796.55
2018-03-08T05:32:51.769Z,99796.19
2018-03-08T05:33:56.858Z,99801.31
2018-03-08T05:35:03.834Z,99796.61
2018-03-08T05:36:10.214Z,99797.08
2018-03-08T05:37:14.720Z,99800.11
2018-03-08T05:38:18.898Z,99801.36
2018-03-08T05:39:23.857Z,99801.41
2018-03-08T05:40:32.669Z,99799.69
2018-03-08T05:41:38.564Z,99799.25
2018-03-08T05:43:00.300Z,99798.81
2018-03-08T05:44:05.274Z,99804.02
2018-03-08T05:45:10.347Z,99807.86
2018-03-08T05:46:14.834Z,99810.86
2018-03-08T05:47:19.082Z,99809.20
2018-03-08T05:48:23.308Z,99810.39
2018-03-08T05:49:29.633Z,99815.91
2018-03-08T05:50:35.820Z,99817.18
2018-03-08T05:51:41.750Z,99814.63
2018-03-08T05:52:45.943Z,99818.45
2018-03-08T05:53:50.183Z,99822.70
2018-03-08T05:54:54.445Z,99826.48
2018-03-08T05:56:02.126Z,99825.23
2018-03-08T05:57:07.679Z,99826.87
2018-03-08T05:58:12.757Z,99831.10
2018-03-08T05:59:17.812Z,99828.97
2018-03-08T06:00:22.025Z,99826.84
2018-03-08T06:01:26.838Z,99830.63
2018-03-08T06:02:34.829Z,99836.06
2018-03-08T06:03:40.781Z,99831.34
2018-03-08T06:04:45.944Z,99837.35
2018-03-08T06:05:50.140Z,99834.00
2018-03-08T06:06:54.315Z,99829.74
2018-03-08T06:08:01.436Z,99835.70
2018-03-08T06:09:09.403Z,99832.83
2018-03-08T06:10:14.958Z,99837.92
2018-03-08T06:11:19.162Z,99843.45
2018-03-08T06:12:23.331Z,99841.30
2018-03-08T06:13:31.522Z,99840.01
2018-03-08T06:14:38.367Z,99846.31
2018-03-08T06:15:43.386Z,99842.55
2018-03-08T06:16:47.618Z,99843.78
2018-03-08T06:17:52.585Z,99847.60
2018-03-08T06:18:58.866Z,99846.78
2018-03-08T06:20:06.084Z,99846.34
2018-03-08T06:21:11.125Z,99849.73
2018-03-08T06:22:16.071Z,99851.40
2018-03-08T06:23:20.246Z,99845.42
2018-03-08T06:24:24.426Z,99845.44
2018-03-08T06:25:31.996Z,99850.52
2018-03-08T06:26:37.604Z,99856.87
2018-03-08T06:27:42.860Z,99852.19
2018-03-08T06:28:47.081Z,99860.62
2018-03-08T06:29:51.314Z,99860.14
2018-03-08T06:30:55.652Z,99856.36
2018-03-08T06:32:05.014Z,99855.66
2018-03-08T06:33:11.918Z,99855.23
2018-03-08T06:34:16.119Z,99860.78
2018-03-08T06:35:20.314Z,99854.80
2018-03-08T06:36:25.328Z,99850.98
2018-03-08T06:37:33.976Z,99853.14
2018-03-08T06:38:39.512Z,99853.16
2018-03-08T06:39:44.136Z,99849.73
2018-03-08T06:40:48.317Z,99849.69
2018-03-08T06:41:53.260Z,99849.78
2018-03-08T06:43:00.642Z,99852.23
2018-03-08T06:44:07.152Z,99850.98
2018-03-08T06:45:12.481Z,99852.27
2018-03-08T06:46:16.779Z,99856.06
2018-03-08T06:47:20.948Z,99863.63
2018-03-08T06:48:25.301Z,99853.16
2018-03-08T06:49:34.014Z,99862.40
2018-03-08T06:50:39.866Z,99859.83
2018-03-08T06:51:44.336Z,99856.48
2018-03-08T06:52:48.558Z,99866.98
2018-03-08T06:53:53.499Z,99874.16
2018-03-08T06:55:00.770Z,99868.23
2018-03-08T06:56:05.957Z,99868.74
2018-03-08T06:57:12.231Z,99863.69
2018-03-08T06:58:16.439Z,99865.73
2018-03-08T06:59:20.615Z,99863.19
2018-03-08T07:00:24.788Z,99868.26
2018-03-08T07:01:33.611Z,99871.55
2018-03-08T07:02:42.524Z,99874.90
2018-03-08T07:03:46.751Z,99878.25
2018-03-08T07:04:51.729Z,99876.98
2018-03-08T07:05:57.594Z,99870.63
2018-03-08T07:07:03.617Z,99869.28
2018-03-08T07:08:09.659Z,99873.10
2018-03-08T07:09:14.453Z,99868.87
2018-03-08T07:10:19.394Z,99868.51
2018-03-08T07:11:24.337Z,99863.82
2018-03-08T07:12:30.453Z,99866.78
2018-03-08T07:13:35.841Z,99860.78
2018-03-08T07:14:41.470Z,99867.91
2018-03-08T07:15:45.961Z,99866.16
2018-03-08T07:16:50.141Z,99869.03
2018-03-08T07:17:54.330Z,99860.95
2018-03-08T07:19:01.719Z,99865.17
2018-03-08T07:20:08.407Z,99857.14
2018-03-08T07:21:13.587Z,99855.81
2018-03-08T07:22:17.785Z,99856.13
2018-03-08T07:23:22.728Z,99859.37
2018-03-08T07:24:31.980Z,99855.22
2018-03-08T07:25:40.987Z,99861.97
2018-03-08T07:26:45.344Z,99860.13
2018-03-08T07:27:49.534Z,99861.78
2018-03-08T07:28:53.710Z,99864.84
2018-03-08T07:30:01.722Z,99863.47
2018-03-08T07:31:07.323Z,99860.94
2018-03-08T07:32:13.803Z,99857.27
2018-03-08T07:33:18.753Z,99861.52
2018-03-08T07:34:23.702Z,99858.16
2018-03-08T07:35:31.373Z,99860.28
2018-03-08T07:36:37.191Z,99864.59
2018-03-08T07:37:43.839Z,99861.25
2018-03-08T07:38:48.106Z,99860.09
2018-03-08T07:39:52.297Z,99859.32
2018-03-08T07:41:01.311Z,99865.20
2018-03-08T07:42:06.638Z,99858.84
2018-03-08T07:43:12.152Z,99856.32
2018-03-08T07:44:17.171Z,99855.08
2018-03-08T07:45:21.367Z,99860.55
2018-03-08T07:46:25.573Z,99848.18
2018-03-08T07:47:32.913Z,99855.22
2018-03-08T07:48:39.184Z,99857.27
2018-03-08T07:49:43.919Z,99857.23
2018-03-08T07:50:48.126Z,99852.60
2018-03-08T07:51:52.298Z,99855.91
2018-03-08T07:52:57.603Z,99854.56
2018-03-08T07:54:04.018Z,99858.48
2018-03-08T07:55:09.664Z,99861.89
2018-03-08T07:56:14.312Z,99854.30
2018-03-08T07:57:18.490Z,99851.21
2018-03-08T07:58:22.656Z,99856.74
2018-03-08T07:59:28.149Z,99854.52
2018-03-08T08:00:34.401Z,99842.16
2018-03-08T08:01:39.530Z,99844.80
2018-03-08T08:02:43.942Z,99846.55
2018-03-08T08:03:48.131Z,99837.20
2018-03-08T08:05:10.421Z,99846.77
2018-03-08T08:08:16.051Z,99836.03
2018-03-08T08:09:20.239Z,99838.41
2018-03-08T08:10:24.391Z,99837.53
2018-03-08T08:11:29.788Z,99831.23
2018-03-08T08:12:34.288Z,99833.70
2018-03-08T08:13:38.451Z,99828.16
2018-03-08T08:14:43.733Z,99834.15
2018-03-08T08:15:49.224Z,99835.77
2018-03-08T08:16:54.357Z,99832.36
2018-03-08T08:17:59.702Z,99834.72
2018-03-08T08:19:04.666Z,99839.64
2018-03-08T08:20:08.850Z,99832.75
2018-03-08T08:21:18.239Z,99838.50
2018-03-08T08:22:26.020Z,99829.01
2018-03-08T08:23:31.093Z,99826.85
2018-03-08T08:24:36.035Z,99824.80
2018-03-08T08:25:40.263Z,99820.47
2018-03-08T08:26:46.651Z,99825.08
2018-03-08T08:27:53.089Z,99815.25
2018-03-08T08:28:58.249Z,99823.27
2018-03-08T08:30:02.438Z,99819.36
2018-03-08T08:31:06.657Z,99817.20
2018-03-08T08:32:10.870Z,99815.92
2018-03-08T08:33:18.118Z,99815.94
2018-03-08T08:34:23.296Z,99818.77
2018-03-08T08:35:28.802Z,99823.19
2018-03-08T08:36:33.000Z,99824.81
2018-03-08T08:37:37.968Z,99821.22
2018-03-08T08:38:42.824Z,99822.39
2018-03-08T08:39:48.694Z,99818.05
2018-03-08T08:40:54.568Z,99814.97
2018-03-08T08:41:59.941Z,99817.21
2018-03-08T08:43:04.152Z,99805.94
2018-03-08T08:44:08.313Z,99811.37
2018-03-08T08:45:15.639Z,99802.95
2018-03-08T08:46:22.631Z,99803.41
2018-03-08T08:47:27.918Z,99804.46
2018-03-08T08:48:32.896Z,99802.20
2018-03-08T08:49:37.065Z,99804.20
2018-03-08T08:50:41.273Z,99803.19
2018-03-08T08:51:47.668Z,99805.26
2018-03-08T08:52:53.473Z,99808.64
2018-03-08T08:53:58.765Z,99811.92
2018-03-08T08:55:03.728Z,99802.67
2018-03-08T08:56:07.972Z,99798.33
2018-03-08T08:57:12.965Z,99803.30
2018-03-08T08:58:18.380Z,99799.78
2018-03-08T08:59:24.131Z,99796.80
2018-03-08T09:00:28.972Z,99803.75
2018-03-08T09:01:33.209Z,99795.91
2018-03-08T09:02:37.426Z,99797.79
2018-03-08T09:03:42.162Z,99795.87
2018-03-08T09:04:48.116Z,99790.72
2018-03-08T09:05:53.093Z,99781.97
2018-03-08T09:06:58.054Z,99784.53
2018-03-08T09:08:02.367Z,99783.12
2018-03-08T09:09:06.566Z,99778.58
2018-03-08T09:10:12.391Z,99776.82
2018-03-08T09:11:18.450Z,99771.44
2018-03-08T09:12:23.710Z,99782.57
2018-03-08T09:13:28.652Z,99782.67
2018-03-08T09:14:32.836Z,99772.44
2018-03-08T09:15:37.847Z,99772.63
2018-03-08T09:16:42.486Z,99774.19
2018-03-08T09:17:47.947Z,99765.69
2018-03-08T09:18:53.002Z,99766.26
2018-03-08T09:19:58.200Z,99768.13
2018-03-08T09:21:03.160Z,99761.20
2018-03-08T09:22:07.371Z,99746.67
2018-03-08T09:23:11.823Z,99762.75
2018-03-08T09:24:18.323Z,99761.17
2018-03-08T09:25:23.988Z,99754.47
2018-03-08T09:26:28.696Z,99756.78
2018-03-08T09:27:32.875Z,99751.41
2018-03-08T09:28:37.093Z,99750.45
2018-03-08T09:29:41.651Z,99751.63
2018-03-08T09:30:48.830Z,99745.88
2018-03-08T09:31:55.699Z,99754.81
2018-03-08T09:33:00.104Z,99751.71
2018-03-08T09:34:04.303Z,99754.10
2018-03-08T09:35:09.217Z,99749.65
2018-03-08T09:36:15.239Z,99745.20
2018-03-08T09:37:20.994Z,99743.85
2018-03-08T09:38:26.121Z,99744.65
2018-03-08T09:39:30.505Z,99743.28
2018-03-08T09:40:34.695Z,99745.06
2018-03-08T09:41:39.644Z,99743.50
2018-03-08T09:42:45.936Z,99739.98
2018-03-08T09:43:50.906Z,99743.67
2018-03-08T09:44:56.738Z,99739.63
2018-03-08T09:46:01.110Z,99750.55
2018-03-08T09:47:05.302Z,99742.59
2018-03-08T09:48:09.473Z,99748.92
2018-03-08T09:49:15.816Z,99751.70
2018-03-08T09:50:22.061Z,99759.84
2018-03-08T09:51:28.912Z,99748.59
2018-03-08T09:52:33.100Z,99748.32
2018-03-08T09:53:38.018Z,99749.95
2018-03-08T09:54:42.969Z,99743.17
2018-03-08T09:55:51.014Z,99743.80
2018-03-08T09:56:56.796Z,99736.31
2018-03-08T09:58:01.822Z,99727.73
2018-03-08T09:59:06.818Z,99734.41
2018-03-08T10:00:10.996Z,99722.06
2018-03-08T10:01:17.195Z,99729.59
2018-03-08T10:02:22.653Z,99729.67
2018-03-08T10:03:28.383Z,99722.05
2018-03-08T10:04:32.578Z,99715.03
2018-03-08T10:05:36.774Z,99712.01
2018-03-08T10:06:41.059Z,99718.44
2018-03-08T10:07:46.457Z,99721.66
2018-03-08T10:08:52.827Z,99717.09
2018-03-08T10:09:57.774Z,99717.14
2018-03-08T10:11:01.968Z,99720.95
2018-03-08T10:12:06.175Z,99718.91
2018-03-08T10:13:10.368Z,99710.38
2018-03-08T10:14:16.929Z,99702.97
2018-03-08T10:15:21.604Z,99704.43
2018-03-08T10:16:26.524Z,99707.92
2018-03-08T10:17:31.515Z,99699.52
2018-03-08T10:18:35.735Z,99703.06
2018-03-08T10:19:39.972Z,99701.78
2018-03-08T10:20:47.629Z,99703.01
2018-03-08T10:21:53.088Z,99696.45
2018-03-08T10:22:58.499Z,99692.08
2018-03-08T10:24:02.704Z,99691.75
2018-03-08T10:25:06.920Z,99691.98
2018-03-08T10:26:11.220Z,99684.66
2018-03-08T10:27:18.304Z,99681.47
2018-03-08T10:28:24.493Z,99689.22
2018-03-08T10:29:29.281Z,99685.67
2018-03-08T10:30:33.475Z,99688.87
2018-03-08T10:31:37.656Z,99685.41
2018-03-08T10:32:43.835Z,99691.83
2018-03-08T10:33:50.754Z,99696.81
2018-03-08T10:34:56.096Z,99689.17
2018-03-08T10:36:00.694Z,99685.55
2018-03-08T10:37:04.883Z,99683.16
2018-03-08T10:38:09.062Z,99677.37
2018-03-08T10:40:21.527Z,99683.22
2018-03-08T10:43:35.875Z,99668.77
2018-03-08T10:44:40.068Z,99680.58
2018-03-08T10:45:45.043Z,99671.59
2018-03-08T10:46:50.361Z,99671.97
2018-03-08T10:47:56.803Z,99676.54
2018-03-08T10:50:05.390Z,99669.70
2018-03-08T10:51:09.557Z,99675.61
2018-03-08T10:52:15.040Z,99670.78
2018-03-08T10:53:21.244Z,99662.55
2018-03-08T10:54:26.155Z,99664.47
2018-03-08T10:55:30.485Z,99664.16
2018-03-08T10:56:34.655Z,99662.08
2018-03-08T10:57:38.875Z,99659.92
2018-03-08T10:58:44.864Z,99666.39
2018-03-08T10:59:51.060Z,99660.38
2018-03-08T11:00:55.999Z,99661.45
2018-03-08T11:02:03.240Z,99662.18
2018-03-08T11:03:07.447Z,99652.56
2018-03-08T11:05:56.673Z,99652.41
2018-03-08T11:07:00.852Z,99659.42
2018-03-08T11:08:05.065Z,99657.37
2018-03-08T11:09:10.196Z,99652.52
2018-03-08T11:10:14.460Z,99648.03
2018-03-08T11:11:19.074Z,99648.61
2018-03-08T11:12:24.868Z,99651.41
2018-03-08T11:13:29.452Z,99649.84
2018-03-08T11:14:34.465Z,99643.63
2018-03-08T11:15:39.419Z,99647.52
2018-03-08T11:16:46.640Z,99638.92
2018-03-08T11:17:51.598Z,99644.25
2018-03-08T11:18:56.673Z,99652.25
2018-03-08T11:20:01.106Z,99647.45
2018-03-08T11:21:05.279Z,99641.88
2018-03-08T11:22:09.517Z,99643.02
2018-03-08T11:23:13.780Z,99640.28
2018-03-08T11:24:18.836Z,99640.68
2018-03-08T11:25:23.950Z,99634.08
2018-03-08T11:26:28.725Z,99634.27
2018-03-08T11:27:32.887Z,99638.94
2018-03-08T11:28:37.849Z,99632.23
2018-03-08T11:29:42.984Z,99628.00
2018-03-08T11:30:49.807Z,99629.32
2018-03-08T11:31:54.956Z,99623.94
2018-03-08T11:33:00.039Z,99631.34
2018-03-08T11:34:04.225Z,99623.53
2018-03-08T11:35:08.383Z,99629.52
2018-03-08T11:36:15.287Z,99629.31
2018-03-08T11:37:20.800Z,99630.98
2018-03-08T11:38:26.527Z,99616.98
2018-03-08T11:39:31.891Z,99616.59
2018-03-08T11:40:37.176Z,99617.77
2018-03-08T11:41:42.168Z,99616.33
2018-03-08T11:42:46.905Z,99622.01
2018-03-08T11:43:51.113Z,99611.70
2018-03-08T11:44:55.345Z,99606.56
2018-03-08T11:45:59.542Z,99609.98
2018-03-08T11:47:03.788Z,99597.23
2018-03-08T11:48:07.979Z,99603.31
2018-03-08T11:49:12.899Z,99609.17
2018-03-08T11:50:18.627Z,99607.34
2018-03-08T11:51:22.861Z,99602.27
2018-03-08T11:52:27.094Z,99608.41
2018-03-08T11:53:31.289Z,99596.72
2018-03-08T11:54:35.515Z,99592.81
2018-03-08T11:55:39.784Z,99590.18
2018-03-08T11:56:45.231Z,99591.73
2018-03-08T11:57:49.943Z,99595.48
2018-03-08T11:58:54.124Z,99594.23
2018-03-08T11:59:59.538Z,99597.13
2018-03-08T12:01:03.722Z,99597.05
2018-03-08T12:02:07.875Z,99594.22
2018-03-08T12:03:13.579Z,99585.51
2018-03-08T12:04:21.800Z,99589.69
2018-03-08T12:05:27.997Z,99590.56
2018-03-08T12:06:32.971Z,99587.13
2018-03-08T12:07:37.136Z,99594.85
2018-03-08T12:08:49.519Z,99591.41
2018-03-08T12:09:54.012Z,99591.47
2018-03-08T12:10:58.457Z,99583.77
2018-03-08T12:12:02.652Z,99586.39
2018-03-08T12:13:06.887Z,99591.95
2018-03-08T12:14:11.401Z,99593.97
2018-03-08T12:15:16.461Z,99596.00
2018-03-08T12:16:23.348Z,99596.39
2018-03-08T12:17:29.045Z,99592.16
2018-03-08T12:18:33.411Z,99591.33
2018-03-08T12:19:37.584Z,99589.76
2018-03-08T12:20:42.678Z,99579.73
2018-03-08T12:21:49.221Z,99588.52
2018-03-08T12:22:58.742Z,99582.42
2018-03-08T12:24:03.686Z,99582.05
2018-03-08T12:25:08.904Z,99581.87
2018-03-08T12:26:14.941Z,99567.48
2018-03-08T12:27:19.523Z,99579.42
2018-03-08T12:28:23.714Z,99571.94
2018-03-08T12:29:30.045Z,99576.14
2018-03-08T12:30:34.968Z,99572.97
2018-03-08T12:31:39.910Z,99577.72
2018-03-08T12:32:47.600Z,99574.11
2018-03-08T12:33:53.389Z,99578.32
2018-03-08T12:34:58.048Z,99583.35
2018-03-08T12:36:03.047Z,99578.77
2018-03-08T12:37:07.221Z,99574.86
2018-03-08T12:38:11.946Z,99576.11
2018-03-08T12:39:19.840Z,99577.96
2018-03-08T12:40:25.258Z,99591.22
2018-03-08T12:41:30.338Z,99586.12
2018-03-08T12:42:34.510Z,99582.91
2018-03-08T12:43:38.681Z,99589.16
2018-03-08T12:44:43.757Z,99597.41
2018-03-08T12:45:51.346Z,99593.70
2018-03-08T12:46:56.546Z,99595.22
2018-03-08T12:48:00.858Z,99588.31
2018-03-08T12:49:05.787Z,99599.06
2018-03-08T12:50:09.977Z,99591.41
2018-03-08T12:51:17.352Z,99602.98
2018-03-08T12:52:23.310Z,99592.62
2018-03-08T12:53:28.752Z,99597.98
2018-03-08T12:54:32.966Z,99587.41